Time;durP1;ratioP1;P1;durP2;ratioP2;P2;SDS_P1;SDS_P2;PMS_P1;PMS_P2;Temp;Humidity;BMP_temperature;BMP_pressure;BME280_temperature;BME280_humidity;BME280_pressure;Samples;Min_cycle;Max_cycle;Signal;HPM_P1;HPM_P2
2023/03/06 06:00:29;;;;;;;15.07;11.40;;;4.60;97.20;;;;;;1720671;28;20658;-66
2023/03/06 06:01:20;;;;;;;12.60;11.30;;;4.60;97.20;;;;;;1720729;28;20206;-65
2023/03/06 06:02:11;;;;;;;15.60;11.98;;;4.60;97.20;;;;;;1718560;28;20679;-66
2023/03/06 06:03:02;;;;;;;12.82;11.50;;;4.60;97.20;;;;;;1720720;28;20228;-66
2023/03/06 06:03:54;;;;;;;11.83;10.43;;;4.60;97.20;;;;;;1720648;28;20205;-66
2023/03/06 06:04:45;;;;;;;12.63;11.32;;;4.60;97.20;;;;;;1720798;28;20216;-66
2023/03/06 06:05:39;;;;;;;12.93;11.63;;;4.60;97.20;;;;;;1720784;28;20252;-66
2023/03/06 06:06:29;;;;;;;13.77;12.15;;;4.60;97.20;;;;;;1720892;28;20229;-66
2023/03/06 06:07:21;;;;;;;16.90;12.13;;;4.60;97.20;;;;;;1720672;28;20197;-69
2023/03/06 06:08:12;;;;;;;14.23;12.43;;;4.60;97.20;;;;;;1718095;28;20206;-66
2023/03/06 06:09:04;;;;;;;13.27;11.87;;;4.60;97.20;;;;;;1720725;28;20205;-67
2023/03/06 06:09:55;;;;;;;14.60;12.32;;;4.70;97.20;;;;;;1718689;28;20452;-66
2023/03/06 06:10:46;;;;;;;14.77;11.70;;;4.70;97.20;;;;;;1718958;28;20414;-66
2023/03/06 06:11:37;;;;;;;14.73;12.50;;;4.70;97.20;;;;;;1717555;28;20202;-66
2023/03/06 06:12:29;;;;;;;14.30;12.50;;;4.70;97.20;;;;;;1713888;28;20193;-66
2023/03/06 06:13:19;;;;;;;18.60;13.48;;;4.70;97.20;;;;;;1713573;28;20210;-67
2023/03/06 06:14:11;;;;;;;14.37;12.30;;;4.70;97.20;;;;;;1716691;28;20204;-67
2023/03/06 06:15:03;;;;;;;13.18;11.75;;;4.70;97.20;;;;;;1718215;28;20197;-67
2023/03/06 06:15:56;;;;;;;14.55;12.95;;;4.70;97.20;;;;;;1716422;28;20201;-67
2023/03/06 06:16:47;;;;;;;15.30;13.00;;;4.70;97.20;;;;;;1716767;28;20210;-67
2023/03/06 06:17:39;;;;;;;13.48;12.07;;;4.60;97.20;;;;;;1716660;28;20208;-67
2023/03/06 06:18:29;;;;;;;16.58;13.23;;;4.60;97.20;;;;;;1715220;28;20213;-66
2023/03/06 06:19:21;;;;;;;13.10;11.73;;;4.60;97.20;;;;;;1713727;28;20198;-67
2023/03/06 06:20:13;;;;;;;14.98;11.48;;;4.60;97.20;;;;;;1716341;28;20212;-67
2023/03/06 06:21:06;;;;;;;14.18;12.63;;;4.60;97.20;;;;;;1714951;28;20256;-67
2023/03/06 06:21:57;;;;;;;13.52;12.13;;;4.70;97.20;;;;;;1713193;28;20221;-66
2023/03/06 06:22:49;;;;;;;14.13;12.63;;;4.70;97.20;;;;;;1716523;28;20426;-66
2023/03/06 06:23:40;;;;;;;13.93;12.18;;;4.70;97.20;;;;;;1716517;28;20709;-66
2023/03/06 06:24:32;;;;;;;13.70;11.60;;;4.70;97.20;;;;;;1714136;28;20603;-66
2023/03/06 06:25:23;;;;;;;15.00;12.82;;;4.70;97.20;;;;;;1717229;28;20946;-67
2023/03/06 06:26:14;;;;;;;14.67;13.10;;;4.70;97.20;;;;;;1716596;28;20677;-67
2023/03/06 06:27:05;;;;;;;15.27;12.50;;;4.80;97.20;;;;;;1715331;28;20432;-66
2023/03/06 06:27:57;;;;;;;14.88;11.85;;;4.80;97.20;;;;;;1715099;28;20202;-67
2023/03/06 06:28:48;;;;;;;12.25;11.05;;;4.80;97.20;;;;;;1717159;28;20205;-67
2023/03/06 06:29:39;;;;;;;14.27;11.70;;;4.80;97.20;;;;;;1716836;28;20206;-66
2023/03/06 06:30:31;;;;;;;15.15;12.15;;;4.80;97.20;;;;;;1715530;28;20324;-66
2023/03/06 06:31:24;;;;;;;15.90;12.75;;;4.80;97.20;;;;;;1713957;28;20221;-67
2023/03/06 06:32:15;;;;;;;13.50;11.35;;;4.90;97.20;;;;;;1715069;28;20228;-68
2023/03/06 06:33:06;;;;;;;13.97;12.47;;;4.90;97.20;;;;;;1713886;28;20190;-67
2023/03/06 06:33:57;;;;;;;13.77;11.60;;;4.90;97.20;;;;;;1713971;28;20240;-67
2023/03/06 06:34:49;;;;;;;12.63;11.30;;;4.90;97.20;;;;;;1713942;28;20205;-67
2023/03/06 06:35:39;;;;;;;13.48;11.80;;;4.90;97.20;;;;;;1713673;28;20211;-66
2023/03/06 06:36:32;;;;;;;16.30;13.00;;;4.90;97.20;;;;;;1714032;28;20206;-68
2023/03/06 06:37:23;;;;;;;15.15;12.93;;;5.00;97.20;;;;;;1713893;28;20229;-67
2023/03/06 06:38:15;;;;;;;14.82;12.90;;;4.90;97.20;;;;;;1715119;28;20205;-67
2023/03/06 06:39:07;;;;;;;19.33;12.68;;;4.90;97.20;;;;;;1713942;28;20240;-67
2023/03/06 06:39:59;;;;;;;14.45;12.55;;;5.00;97.20;;;;;;1713852;28;20198;-66
2023/03/06 06:40:49;;;;;;;16.27;14.23;;;5.00;97.20;;;;;;1714863;28;20244;-66
2023/03/06 06:41:41;;;;;;;16.63;14.77;;;5.00;97.20;;;;;;1716751;28;20205;-67
2023/03/06 06:42:32;;;;;;;15.25;13.65;;;5.00;97.20;;;;;;1716667;28;20257;-66
2023/03/06 06:43:24;;;;;;;17.17;15.37;;;5.00;97.20;;;;;;1716243;28;20206;-67
2023/03/06 06:44:15;;;;;;;16.55;14.82;;;5.00;97.20;;;;;;1716610;28;20452;-66
2023/03/06 06:45:08;;;;;;;14.70;12.63;;;4.90;97.20;;;;;;1716961;28;20199;-66
2023/03/06 06:45:58;;;;;;;18.52;13.88;;;4.90;97.20;;;;;;1716141;28;20451;-66
2023/03/06 06:46:51;;;;;;;16.70;14.40;;;4.90;97.20;;;;;;1716677;28;21395;-66
2023/03/06 06:47:43;;;;;;;16.75;13.52;;;4.90;97.20;;;;;;1716590;28;20210;-66
2023/03/06 06:48:36;;;;;;;15.25;13.70;;;4.90;97.20;;;;;;1714619;28;20202;-66
2023/03/06 06:49:27;;;;;;;15.52;13.35;;;4.90;97.20;;;;;;1714651;28;20239;-66
2023/03/06 06:50:19;;;;;;;14.83;12.20;;;4.90;97.20;;;;;;1715121;28;20277;-66
2023/03/06 06:51:10;;;;;;;15.80;13.60;;;4.90;97.20;;;;;;1714328;28;20199;-65
2023/03/06 06:52:02;;;;;;;14.20;12.70;;;4.90;97.20;;;;;;1714483;28;20762;-66
2023/03/06 06:52:52;;;;;;;15.73;13.40;;;4.90;97.20;;;;;;1714468;28;20236;-66
2023/03/06 06:53:44;;;;;;;16.90;14.40;;;4.90;97.20;;;;;;1713212;28;20208;-66
2023/03/06 06:54:35;;;;;;;14.02;12.52;;;4.90;97.20;;;;;;1714743;28;20677;-65
2023/03/06 06:55:27;;;;;;;16.60;13.27;;;5.00;97.20;;;;;;1714936;28;20240;-66
2023/03/06 06:56:18;;;;;;;16.80;13.90;;;5.00;97.20;;;;;;1713724;28;20206;-66
2023/03/06 06:57:11;;;;;;;16.10;13.37;;;4.90;97.20;;;;;;1714545;28;20292;-66
2023/03/06 06:58:01;;;;;;;16.83;14.18;;;4.90;97.20;;;;;;1715978;28;20197;-66
2023/03/06 06:58:53;;;;;;;17.70;13.10;;;4.90;97.20;;;;;;1714379;28;20206;-66
2023/03/06 06:59:44;;;;;;;15.48;13.07;;;4.90;97.20;;;;;;1713930;28;20231;-66
2023/03/06 07:00:36;;;;;;;16.33;13.67;;;4.90;97.20;;;;;;1713668;28;20255;-66
2023/03/06 07:01:27;;;;;;;14.95;13.35;;;4.90;97.20;;;;;;1714775;28;20221;-66
2023/03/06 07:02:20;;;;;;;16.90;14.20;;;4.90;97.20;;;;;;1714404;28;20236;-66
2023/03/06 07:03:11;;;;;;;16.30;13.25;;;5.00;97.20;;;;;;1714368;28;20236;-66
2023/03/06 07:04:03;;;;;;;16.67;13.80;;;5.00;97.20;;;;;;1713937;28;20201;-66
2023/03/06 07:04:54;;;;;;;15.23;13.32;;;5.00;97.20;;;;;;1715912;28;20843;-66
2023/03/06 07:05:53;;;;;;;15.37;13.30;;;5.00;97.20;;;;;;1714644;28;20637;-66
2023/03/06 07:06:44;;;;;;;18.70;13.90;;;4.90;97.20;;;;;;1714234;28;20205;-66
2023/03/06 07:07:37;;;;;;;17.70;12.82;;;4.90;97.20;;;;;;1715262;28;20200;-66
2023/03/06 07:08:29;;;;;;;15.70;12.63;;;4.90;97.20;;;;;;1713763;28;20634;-66
2023/03/06 07:09:21;;;;;;;14.63;12.70;;;4.90;97.20;;;;;;1714124;28;20294;-65
2023/03/06 07:10:14;;;;;;;16.38;12.50;;;4.90;97.20;;;;;;1714343;28;20205;-66
2023/03/06 07:11:07;;;;;;;14.25;12.75;;;4.90;97.20;;;;;;1714062;28;20685;-66
2023/03/06 07:11:58;;;;;;;18.95;13.05;;;4.80;97.20;;;;;;1715507;28;20218;-66
2023/03/06 07:12:50;;;;;;;15.30;12.77;;;4.90;97.20;;;;;;1713658;28;20186;-65
2023/03/06 07:13:41;;;;;;;13.57;11.15;;;4.90;97.20;;;;;;1712259;28;20485;-66
2023/03/06 07:14:32;;;;;;;16.47;12.50;;;4.80;97.20;;;;;;1713199;28;20452;-66
2023/03/06 07:15:25;;;;;;;12.95;11.63;;;4.80;97.20;;;;;;1713529;28;20237;-66
2023/03/06 07:16:16;;;;;;;13.80;12.18;;;4.80;97.20;;;;;;1713336;28;20201;-66
2023/03/06 07:17:08;;;;;;;17.20;13.10;;;4.80;97.20;;;;;;1713627;28;20211;-66
2023/03/06 07:18:00;;;;;;;14.52;12.98;;;4.80;97.20;;;;;;1715684;28;20484;-66
2023/03/06 07:18:52;;;;;;;14.85;12.32;;;4.90;97.20;;;;;;1714999;28;20594;-66
2023/03/06 07:19:43;;;;;;;14.13;12.65;;;4.80;97.20;;;;;;1713537;28;20228;-66
2023/03/06 07:20:34;;;;;;;16.00;13.03;;;4.80;97.20;;;;;;1714033;28;20219;-65
2023/03/06 07:21:25;;;;;;;13.85;12.50;;;4.80;97.20;;;;;;1714432;28;20224;-66
2023/03/06 07:22:17;;;;;;;15.03;13.43;;;4.80;97.20;;;;;;1714974;28;20198;-66
2023/03/06 07:23:10;;;;;;;15.95;12.50;;;4.80;97.20;;;;;;1716189;28;20261;-66
2023/03/06 07:24:02;;;;;;;15.00;13.10;;;4.80;97.20;;;;;;1714360;28;20224;-66
2023/03/06 07:24:53;;;;;;;15.77;13.07;;;4.80;97.20;;;;;;1715458;28;20475;-67
2023/03/06 07:25:44;;;;;;;16.80;13.90;;;4.80;97.20;;;;;;1713908;28;20208;-66
2023/03/06 07:26:35;;;;;;;15.13;13.48;;;4.80;97.20;;;;;;1714813;28;20206;-66
2023/03/06 07:27:27;;;;;;;15.27;12.90;;;4.80;97.20;;;;;;1714183;28;20678;-67
2023/03/06 07:28:18;;;;;;;15.52;13.40;;;4.80;97.20;;;;;;1715040;28;20445;-65
2023/03/06 07:29:10;;;;;;;15.75;14.10;;;4.80;97.20;;;;;;1715127;28;20189;-66
2023/03/06 07:30:00;;;;;;;15.85;13.07;;;4.80;97.20;;;;;;1716794;28;20201;-66
2023/03/06 07:30:53;;;;;;;17.10;13.20;;;4.90;97.20;;;;;;1714930;28;20695;-66
2023/03/06 07:31:44;;;;;;;13.90;12.50;;;4.90;97.20;;;;;;1714940;28;20460;-66
2023/03/06 07:32:36;;;;;;;14.35;12.25;;;4.90;97.20;;;;;;1714152;28;20751;-66
2023/03/06 07:33:28;;;;;;;15.60;13.70;;;4.90;97.20;;;;;;1716165;28;20212;-66
2023/03/06 07:34:20;;;;;;;15.40;13.70;;;4.90;97.20;;;;;;1714970;28;20206;-66
2023/03/06 07:35:13;;;;;;;16.90;13.35;;;4.90;97.20;;;;;;1714350;28;20201;-66
2023/03/06 07:36:10;;;;;;;14.68;12.93;;;4.90;97.20;;;;;;1714234;28;20288;-67
2023/03/06 07:37:00;;;;;;;16.02;13.35;;;4.90;97.20;;;;;;1713947;28;20201;-66
2023/03/06 07:37:53;;;;;;;14.60;13.00;;;4.90;97.20;;;;;;1715274;28;20197;-65
2023/03/06 07:38:44;;;;;;;16.65;14.25;;;4.90;97.20;;;;;;1714009;28;20209;-66
2023/03/06 07:39:35;;;;;;;17.07;13.10;;;4.90;97.20;;;;;;1715014;28;20190;-66
2023/03/06 07:40:27;;;;;;;15.95;13.63;;;4.90;97.20;;;;;;1714165;28;20229;-66
2023/03/06 07:41:18;;;;;;;15.27;13.75;;;4.90;97.20;;;;;;1714509;28;20316;-66
2023/03/06 07:42:11;;;;;;;15.10;13.38;;;5.00;97.20;;;;;;1714946;28;20706;-66
2023/03/06 07:43:05;;;;;;;17.20;13.63;;;4.90;97.20;;;;;;1713603;28;20226;-66
2023/03/06 07:43:56;;;;;;;14.43;12.90;;;5.00;97.20;;;;;;1716293;28;20201;-66
2023/03/06 07:44:47;;;;;;;17.43;13.83;;;5.00;97.20;;;;;;1714391;28;20197;-65
2023/03/06 07:45:38;;;;;;;18.67;13.20;;;5.00;97.20;;;;;;1714313;28;20484;-66
2023/03/06 07:46:30;;;;;;;14.03;12.60;;;5.00;97.20;;;;;;1714130;28;20201;-67
2023/03/06 07:47:20;;;;;;;16.83;13.60;;;5.00;97.20;;;;;;1715870;28;20213;-66
2023/03/06 07:48:13;;;;;;;16.93;14.50;;;5.00;97.20;;;;;;1714105;28;20717;-66
2023/03/06 07:49:05;;;;;;;15.00;13.40;;;5.00;97.20;;;;;;1714208;28;20289;-66
2023/03/06 07:50:01;;;;;;;15.38;12.68;;;5.00;97.20;;;;;;1714518;28;20349;-66
2023/03/06 07:50:57;;;;;;;17.13;13.02;;;5.00;97.20;;;;;;1717331;28;20275;-66
2023/03/06 07:51:48;;;;;;;13.40;11.95;;;5.00;97.20;;;;;;1715022;28;20190;-67
2023/03/06 07:52:39;;;;;;;17.90;13.07;;;5.10;97.20;;;;;;1713982;28;20202;-66
2023/03/06 07:53:31;;;;;;;14.50;13.00;;;5.10;97.20;;;;;;1714609;28;20200;-66
2023/03/06 07:54:22;;;;;;;16.60;13.50;;;5.10;97.20;;;;;;1713832;28;20205;-66
2023/03/06 07:55:14;;;;;;;15.83;12.40;;;5.10;97.20;;;;;;1714256;28;20197;-66
2023/03/06 07:56:07;;;;;;;17.38;12.73;;;5.10;97.20;;;;;;1714061;28;20214;-65
2023/03/06 07:56:59;;;;;;;14.98;13.25;;;5.10;97.20;;;;;;1715509;28;20206;-66
2023/03/06 07:57:50;;;;;;;15.93;13.60;;;5.10;97.20;;;;;;1715771;28;20225;-66
2023/03/06 07:58:43;;;;;;;16.40;12.63;;;5.10;97.20;;;;;;1714664;28;20260;-66
2023/03/06 07:59:34;;;;;;;19.00;14.63;;;5.10;97.20;;;;;;1714439;28;20231;-66
2023/03/06 08:00:26;;;;;;;17.20;13.40;;;5.10;97.20;;;;;;1714288;28;20201;-66
2023/03/06 08:01:18;;;;;;;15.07;13.10;;;5.10;97.20;;;;;;1714911;28;20201;-66
2023/03/06 08:02:11;;;;;;;16.80;13.52;;;5.10;97.20;;;;;;1714372;28;20290;-66
2023/03/06 08:03:01;;;;;;;18.20;13.95;;;5.10;97.20;;;;;;1714717;28;20260;-66
2023/03/06 08:03:54;;;;;;;16.45;13.45;;;5.20;97.20;;;;;;1715104;28;20202;-67
2023/03/06 08:04:50;;;;;;;15.20;13.60;;;5.20;97.20;;;;;;1714459;28;20201;-67
2023/03/06 08:05:43;;;;;;;16.23;14.00;;;5.20;97.20;;;;;;1714901;28;20205;-66
2023/03/06 08:06:34;;;;;;;15.10;12.77;;;5.30;97.20;;;;;;1715222;28;20209;-67
2023/03/06 08:07:26;;;;;;;18.98;14.40;;;5.30;97.20;;;;;;1715057;28;20209;-66
2023/03/06 08:08:16;;;;;;;15.10;13.50;;;5.40;97.20;;;;;;1715085;28;20237;-65
2023/03/06 08:09:08;;;;;;;18.70;14.00;;;5.40;97.20;;;;;;1715181;28;20216;-65
2023/03/06 08:09:59;;;;;;;15.13;13.55;;;5.40;97.20;;;;;;1716613;28;21982;-66
2023/03/06 08:10:51;;;;;;;18.45;13.75;;;5.50;97.20;;;;;;1716011;28;20273;-66
2023/03/06 08:11:44;;;;;;;15.65;13.18;;;5.50;97.20;;;;;;1715653;28;20221;-67
2023/03/06 08:12:35;;;;;;;15.52;13.38;;;5.60;97.20;;;;;;1715866;28;20582;-66
2023/03/06 08:13:26;;;;;;;16.60;13.75;;;5.60;97.20;;;;;;1716478;28;20221;-66
2023/03/06 08:14:18;;;;;;;18.10;14.53;;;5.60;97.20;;;;;;1715715;28;20212;-66
2023/03/06 08:15:10;;;;;;;18.75;14.80;;;5.60;97.20;;;;;;1714883;28;20202;-66
2023/03/06 08:16:04;;;;;;;16.52;14.20;;;5.70;97.20;;;;;;1715039;28;20211;-66
2023/03/06 08:16:55;;;;;;;17.77;14.70;;;5.60;97.20;;;;;;1716290;28;20217;-66
2023/03/06 08:17:48;;;;;;;15.65;13.63;;;5.70;97.20;;;;;;1716118;28;20195;-66
2023/03/06 08:18:39;;;;;;;15.68;13.77;;;5.70;97.20;;;;;;1715207;28;20614;-66
2023/03/06 08:19:31;;;;;;;14.87;13.20;;;5.70;97.20;;;;;;1715369;28;20201;-66
2023/03/06 08:20:23;;;;;;;16.20;14.10;;;5.70;97.20;;;;;;1714957;28;20236;-66
2023/03/06 08:21:17;;;;;;;15.70;13.45;;;5.70;97.20;;;;;;1715884;28;20205;-66
2023/03/06 08:22:09;;;;;;;16.90;13.82;;;5.70;97.20;;;;;;1717009;28;20230;-66
2023/03/06 08:23:01;;;;;;;16.45;13.85;;;5.80;97.20;;;;;;1714703;28;20622;-66
2023/03/06 08:23:52;;;;;;;16.60;13.32;;;5.80;97.20;;;;;;1714463;28;20294;-66
2023/03/06 08:24:44;;;;;;;17.48;13.90;;;5.80;97.20;;;;;;1715573;28;20629;-66
2023/03/06 08:25:35;;;;;;;17.25;14.32;;;5.80;97.20;;;;;;1715228;28;20202;-66
2023/03/06 08:26:28;;;;;;;14.90;12.80;;;5.80;97.20;;;;;;1715237;28;20202;-66
2023/03/06 08:27:19;;;;;;;15.25;12.82;;;5.90;97.20;;;;;;1715062;28;20228;-66
2023/03/06 08:28:11;;;;;;;14.80;12.63;;;5.90;97.20;;;;;;1715450;28;20205;-67
2023/03/06 08:29:02;;;;;;;16.40;13.10;;;6.00;97.20;;;;;;1714878;28;20679;-66
2023/03/06 08:29:54;;;;;;;18.27;13.20;;;6.10;97.20;;;;;;1715864;28;20972;-66
2023/03/06 08:30:45;;;;;;;14.60;12.52;;;6.10;97.20;;;;;;1714917;28;20238;-66
2023/03/06 08:31:38;;;;;;;13.88;12.45;;;6.10;97.20;;;;;;1715220;28;20236;-67
2023/03/06 08:32:30;;;;;;;17.00;12.57;;;6.20;97.20;;;;;;1715815;28;20330;-66
2023/03/06 08:33:21;;;;;;;13.35;11.95;;;6.30;97.20;;;;;;1715306;28;20982;-66
2023/03/06 08:34:15;;;;;;;12.77;11.33;;;6.30;97.20;;;;;;1715408;28;20565;-66
2023/03/06 08:35:06;;;;;;;13.27;11.43;;;6.40;97.20;;;;;;1716486;28;20230;-66
2023/03/06 08:36:00;;;;;;;13.38;11.57;;;6.40;97.20;;;;;;1714043;28;20240;-66
2023/03/06 08:36:50;;;;;;;13.05;11.73;;;6.50;97.20;;;;;;1715276;28;20260;-66
2023/03/06 08:37:42;;;;;;;12.50;11.13;;;6.50;97.20;;;;;;1715486;28;20198;-66
2023/03/06 08:38:33;;;;;;;11.75;10.57;;;6.60;97.20;;;;;;1715205;28;20198;-66
2023/03/06 08:39:24;;;;;;;14.83;11.70;;;6.60;97.20;;;;;;1715402;28;20202;-66
2023/03/06 08:40:15;;;;;;;13.90;11.52;;;6.70;97.20;;;;;;1715842;28;20201;-66
2023/03/06 08:41:07;;;;;;;11.52;10.32;;;6.80;97.20;;;;;;1714743;28;20206;-66
2023/03/06 08:41:58;;;;;;;12.60;11.10;;;6.80;97.20;;;;;;1715307;28;20232;-66
2023/03/06 08:42:50;;;;;;;11.60;10.10;;;6.90;97.20;;;;;;1715531;28;20212;-66
2023/03/06 08:43:41;;;;;;;12.38;11.05;;;6.90;97.20;;;;;;1716069;28;20233;-66
2023/03/06 08:44:33;;;;;;;11.30;9.83;;;6.90;97.20;;;;;;1715880;28;20206;-66
2023/03/06 08:45:24;;;;;;;11.10;9.25;;;7.00;97.20;;;;;;1715155;28;20954;-66
2023/03/06 08:46:17;;;;;;;11.00;9.83;;;7.00;97.20;;;;;;1714861;28;20627;-66
2023/03/06 08:47:08;;;;;;;13.23;10.10;;;7.10;97.20;;;;;;1715005;28;20201;-66
2023/03/06 08:48:00;;;;;;;11.60;10.40;;;7.20;97.20;;;;;;1716230;28;20356;-66
2023/03/06 08:48:50;;;;;;;13.93;10.95;;;7.30;97.20;;;;;;1715063;28;20445;-67
2023/03/06 08:49:42;;;;;;;11.20;9.67;;;7.40;97.20;;;;;;1716504;28;20216;-66
2023/03/06 08:50:33;;;;;;;11.40;10.20;;;7.60;97.20;;;;;;1715859;28;20229;-66
2023/03/06 08:51:27;;;;;;;10.77;9.67;;;7.80;97.20;;;;;;1715000;28;20204;-66
2023/03/06 08:52:18;;;;;;;10.55;9.27;;;7.90;97.20;;;;;;1715789;28;20201;-66
2023/03/06 08:53:10;;;;;;;11.75;9.98;;;8.00;97.20;;;;;;1714667;28;20206;-67
2023/03/06 08:54:01;;;;;;;11.57;9.38;;;8.20;97.20;;;;;;1715824;28;20233;-67
2023/03/06 08:54:53;;;;;;;13.87;9.90;;;8.30;97.20;;;;;;1715471;28;20319;-66
2023/03/06 08:55:44;;;;;;;12.80;9.48;;;8.40;97.20;;;;;;1714848;28;20492;-67
2023/03/06 08:56:35;;;;;;;10.30;8.90;;;8.40;97.20;;;;;;1716624;28;20189;-66
2023/03/06 08:57:26;;;;;;;10.27;9.25;;;8.40;97.20;;;;;;1714853;28;20962;-67
2023/03/06 08:58:18;;;;;;;10.57;9.53;;;8.50;97.20;;;;;;1715599;28;20547;-66
2023/03/06 08:59:10;;;;;;;10.20;9.20;;;8.50;97.20;;;;;;1716802;28;20212;-66
2023/03/06 09:00:05;;;;;;;10.55;9.27;;;8.60;97.20;;;;;;1714457;28;20202;-66
2023/03/06 09:00:56;;;;;;;9.75;8.45;;;8.50;97.20;;;;;;1715943;28;20229;-66
2023/03/06 09:01:48;;;;;;;12.20;9.68;;;8.60;97.20;;;;;;1714975;28;20657;-67
2023/03/06 09:02:39;;;;;;;11.32;9.80;;;8.60;97.20;;;;;;1716862;28;20581;-65
2023/03/06 09:03:31;;;;;;;9.73;8.73;;;8.60;97.20;;;;;;1714939;28;20588;-66
2023/03/06 09:04:21;;;;;;;11.10;8.95;;;8.60;97.20;;;;;;1715429;28;20216;-66
2023/03/06 09:05:13;;;;;;;10.50;9.33;;;8.60;97.20;;;;;;1715527;28;20209;-66
2023/03/06 09:06:04;;;;;;;10.23;9.18;;;8.60;97.20;;;;;;1715488;28;20230;-66
2023/03/06 09:06:57;;;;;;;10.97;9.47;;;8.60;97.20;;;;;;1715503;28;20205;-67
2023/03/06 09:07:48;;;;;;;10.32;8.82;;;8.60;97.20;;;;;;1715724;28;20502;-66
2023/03/06 09:08:41;;;;;;;8.68;7.85;;;8.70;97.20;;;;;;1715069;28;20194;-66
2023/03/06 09:09:32;;;;;;;9.73;8.73;;;8.70;97.20;;;;;;1715686;28;20205;-67
2023/03/06 09:10:26;;;;;;;10.93;9.67;;;8.80;97.20;;;;;;1716171;28;20228;-66
2023/03/06 09:11:17;;;;;;;9.98;8.90;;;8.80;97.20;;;;;;1715113;28;20206;-66
2023/03/06 09:12:08;;;;;;;9.93;8.85;;;8.80;97.20;;;;;;1717314;28;20201;-67
2023/03/06 09:12:59;;;;;;;9.63;8.73;;;8.90;97.20;;;;;;1714976;28;20245;-66
2023/03/06 09:13:52;;;;;;;10.07;8.90;;;8.90;97.20;;;;;;1715633;28;20200;-65
2023/03/06 09:14:43;;;;;;;10.32;8.48;;;8.90;97.20;;;;;;1714913;28;20263;-66
2023/03/06 09:15:36;;;;;;;10.20;9.10;;;9.00;97.20;;;;;;1716572;28;20324;-66
2023/03/06 09:16:27;;;;;;;11.45;7.95;;;9.00;97.20;;;;;;1716055;28;20333;-66
2023/03/06 09:17:18;;;;;;;9.90;8.20;;;9.00;97.20;;;;;;1714834;28;20202;-66
2023/03/06 09:18:09;;;;;;;8.60;7.70;;;9.00;97.20;;;;;;1715910;28;20233;-66
2023/03/06 09:19:01;;;;;;;8.80;7.90;;;9.10;97.20;;;;;;1714550;28;20197;-67
2023/03/06 09:19:52;;;;;;;9.57;8.52;;;9.00;97.20;;;;;;1715018;28;20988;-67
2023/03/06 09:20:43;;;;;;;9.70;8.70;;;9.00;97.20;;;;;;1714614;28;20749;-66
2023/03/06 09:21:34;;;;;;;9.45;8.38;;;9.00;97.20;;;;;;1716705;28;20565;-66
2023/03/06 09:22:27;;;;;;;9.13;8.10;;;8.90;97.20;;;;;;1716406;28;20570;-66
2023/03/06 09:23:18;;;;;;;9.25;8.15;;;8.90;97.20;;;;;;1715168;28;20228;-66
2023/03/06 09:24:09;;;;;;;10.30;7.73;;;8.90;97.20;;;;;;1714756;28;20205;-66
2023/03/06 09:25:01;;;;;;;9.55;7.63;;;8.80;97.20;;;;;;1715161;28;20671;-66
2023/03/06 09:25:53;;;;;;;9.77;7.60;;;8.80;97.20;;;;;;1714839;28;20586;-67
2023/03/06 09:26:45;;;;;;;9.75;7.90;;;8.70;97.20;;;;;;1715106;28;20202;-66
2023/03/06 09:27:37;;;;;;;10.70;8.07;;;8.70;97.20;;;;;;1715111;28;20848;-66
2023/03/06 09:28:28;;;;;;;9.45;7.97;;;8.70;97.20;;;;;;1714958;28;20229;-66
2023/03/06 09:29:20;;;;;;;8.53;7.63;;;8.70;97.20;;;;;;1717548;28;20206;-66
2023/03/06 09:30:11;;;;;;;8.88;7.97;;;8.60;97.20;;;;;;1715142;28;20206;-66
2023/03/06 09:31:09;;;;;;;10.07;8.68;;;8.70;97.20;;;;;;1714670;28;20213;-67
2023/03/06 09:31:59;;;;;;;9.38;8.30;;;8.60;97.20;;;;;;1715471;28;20593;-66
2023/03/06 09:32:51;;;;;;;8.67;7.87;;;8.70;97.20;;;;;;1715677;28;20567;-67
2023/03/06 09:33:42;;;;;;;9.05;7.65;;;8.70;97.20;;;;;;1715808;28;20230;-66
2023/03/06 09:34:34;;;;;;;8.80;7.88;;;8.70;97.20;;;;;;1715315;28;20237;-66
2023/03/06 09:35:25;;;;;;;8.80;7.90;;;8.70;97.20;;;;;;1716767;28;20193;-65
2023/03/06 09:36:18;;;;;;;8.17;7.37;;;8.70;97.20;;;;;;1715665;28;20193;-66
2023/03/06 09:37:08;;;;;;;9.57;8.32;;;8.80;97.20;;;;;;1715094;28;20233;-66
2023/03/06 09:38:01;;;;;;;8.97;8.07;;;8.80;97.20;;;;;;1715451;28;20218;-66
2023/03/06 09:38:52;;;;;;;8.95;7.80;;;8.90;97.20;;;;;;1715270;28;20430;-66
2023/03/06 09:39:44;;;;;;;8.20;7.40;;;8.90;97.20;;;;;;1714952;28;20280;-67
2023/03/06 09:40:49;;;;;;;8.52;7.72;;;8.90;97.20;;;;;;1715403;28;20214;-67
2023/03/06 09:41:41;;;;;;;8.10;7.30;;;8.90;97.20;;;;;;1715608;28;20576;-66
2023/03/06 09:42:32;;;;;;;10.80;8.05;;;8.90;97.20;;;;;;1715643;28;20637;-65
2023/03/06 09:43:28;;;;;;;9.13;8.10;;;9.00;97.20;;;;;;1715738;28;20197;-67
2023/03/06 09:44:24;;;;;;;9.57;7.97;;;9.00;97.20;;;;;;1715469;28;20676;-66
2023/03/06 09:45:16;;;;;;;8.45;7.63;;;9.10;97.20;;;;;;1714995;28;20210;-66
2023/03/06 09:46:18;;;;;;;7.80;7.00;;;9.20;97.20;;;;;;1715416;28;20197;-67
2023/03/06 09:47:41;;;;;;;8.07;7.28;;;9.20;97.20;;;;;;1716109;28;20197;-66
2023/03/06 09:48:39;;;;;;;9.02;7.47;;;9.30;97.20;;;;;;1712381;28;20661;-66
2023/03/06 09:49:45;;;;;;;8.50;7.63;;;9.30;97.20;;;;;;1716038;28;20206;-66
2023/03/06 09:50:45;;;;;;;8.45;7.13;;;9.30;97.20;;;;;;1714954;28;20253;-66
2023/03/06 09:51:50;;;;;;;8.85;7.78;;;9.40;97.20;;;;;;1715321;28;20564;-66
2023/03/06 09:52:52;;;;;;;9.02;7.68;;;9.40;97.20;;;;;;1715151;28;20210;-66
2023/03/06 09:53:57;;;;;;;10.02;7.75;;;9.40;97.20;;;;;;1714873;28;20236;-66
2023/03/06 09:54:54;;;;;;;7.60;6.90;;;9.40;97.20;;;;;;1714759;28;20202;-66
2023/03/06 09:55:50;;;;;;;8.65;7.75;;;9.30;97.20;;;;;;1716771;28;20209;-66
2023/03/06 09:56:47;;;;;;;10.93;7.88;;;9.30;97.20;;;;;;1715047;28;20210;-66
2023/03/06 09:57:41;;;;;;;8.18;7.28;;;9.20;97.20;;;;;;1715219;28;20261;-67
2023/03/06 09:58:40;;;;;;;8.13;7.32;;;9.10;97.20;;;;;;1716539;28;20201;-67
2023/03/06 09:59:31;;;;;;;7.25;6.55;;;9.10;97.20;;;;;;1715007;28;20216;-66
2023/03/06 10:00:27;;;;;;;8.43;7.63;;;9.00;97.20;;;;;;1715440;28;20205;-66
2023/03/06 10:01:22;;;;;;;9.10;7.78;;;8.80;97.20;;;;;;1715594;28;20229;-66
2023/03/06 10:02:18;;;;;;;9.13;8.23;;;8.70;97.20;;;;;;1715503;28;20210;-66
2023/03/06 10:03:19;;;;;;;8.02;7.22;;;8.60;97.20;;;;;;1716126;28;20204;-66
2023/03/06 10:04:27;;;;;;;9.00;7.63;;;8.50;97.20;;;;;;1715001;28;20749;-66
2023/03/06 10:05:22;;;;;;;8.77;7.63;;;8.40;97.20;;;;;;1715486;28;20635;-66
2023/03/06 10:06:20;;;;;;;8.95;8.05;;;8.20;97.20;;;;;;1714654;28;20205;-66
2023/03/06 10:07:17;;;;;;;7.40;6.70;;;8.10;97.20;;;;;;1715048;28;20209;-67
2023/03/06 10:08:20;;;;;;;8.90;8.00;;;8.00;97.20;;;;;;1715929;28;20242;-67
2023/03/06 10:09:17;;;;;;;8.77;7.88;;;8.00;97.20;;;;;;1714697;28;20660;-67
2023/03/06 10:10:18;;;;;;;8.68;7.53;;;7.90;97.20;;;;;;1714551;28;20201;-67
2023/03/06 10:11:13;;;;;;;8.55;7.32;;;7.90;97.20;;;;;;1714822;28;20710;-67
2023/03/06 10:12:12;;;;;;;8.63;7.65;;;7.80;97.20;;;;;;1714874;28;20194;-66
2023/03/06 10:13:13;;;;;;;8.30;7.45;;;7.80;97.20;;;;;;1714425;28;20206;-66
2023/03/06 10:14:15;;;;;;;9.95;6.97;;;7.80;97.20;;;;;;1715854;28;20456;-66
2023/03/06 10:15:14;;;;;;;7.47;6.70;;;7.80;97.20;;;;;;1716588;28;20941;-66
2023/03/06 10:16:21;;;;;;;11.35;7.70;;;7.80;97.20;;;;;;1715375;28;20240;-66
2023/03/06 10:17:19;;;;;;;8.98;8.07;;;7.90;97.20;;;;;;1714730;28;20197;-66
2023/03/06 10:18:12;;;;;;;8.65;7.75;;;7.90;97.20;;;;;;1715391;28;20198;-67
2023/03/06 10:19:10;;;;;;;9.43;8.35;;;7.90;97.20;;;;;;1714995;28;20197;-67
2023/03/06 10:20:07;;;;;;;8.52;7.60;;;7.90;97.20;;;;;;1714902;28;20271;-66
2023/03/06 10:21:03;;;;;;;7.75;7.03;;;7.90;97.20;;;;;;1714290;28;20232;-67
2023/03/06 10:21:59;;;;;;;8.98;8.07;;;7.90;97.20;;;;;;1716252;28;20205;-67
2023/03/06 10:23:05;;;;;;;8.77;7.88;;;7.90;97.20;;;;;;1714838;28;20198;-66
2023/03/06 10:24:04;;;;;;;8.52;7.63;;;7.90;97.20;;;;;;1714745;28;20198;-66
2023/03/06 10:25:03;;;;;;;8.43;7.53;;;7.90;97.20;;;;;;1715179;28;20198;-66
2023/03/06 10:25:59;;;;;;;7.90;7.13;;;7.90;97.20;;;;;;1715882;28;20225;-67
2023/03/06 10:26:59;;;;;;;7.57;6.78;;;7.80;97.20;;;;;;1714814;28;20190;-66
2023/03/06 10:27:55;;;;;;;7.72;7.03;;;7.70;97.20;;;;;;1714798;28;20340;-66
2023/03/06 10:28:53;;;;;;;7.55;6.85;;;7.70;97.20;;;;;;1714984;28;20655;-66
2023/03/06 10:29:53;;;;;;;8.18;6.95;;;7.70;97.20;;;;;;1715746;28;20205;-66
2023/03/06 10:30:56;;;;;;;7.85;6.63;;;7.70;97.20;;;;;;1714498;28;20261;-67
2023/03/06 10:31:53;;;;;;;7.78;7.05;;;7.70;97.20;;;;;;1714909;28;20221;-66
2023/03/06 10:32:51;;;;;;;7.90;7.10;;;7.70;97.20;;;;;;1715320;28;20198;-66
2023/03/06 10:33:54;;;;;;;9.57;8.35;;;7.70;97.20;;;;;;1714291;28;20228;-66
2023/03/06 10:34:44;;;;;;;8.98;8.13;;;7.60;97.20;;;;;;1714554;28;20242;-66